sensor_id;sensor_type;location;lat;lon;timestamp;P1;durP1;ratioP1;P2;durP2;ratioP2
43835;SDS011;39345;43.964;25.340;2024-01-11T00:01:18;32.33;;;16.10;;
43835;SDS011;39345;43.964;25.340;2024-01-11T00:03:46;37.05;;;16.05;;
43835;SDS011;39345;43.964;25.340;2024-01-11T00:06:13;36.35;;;16.27;;
43835;SDS011;39345;43.964;25.340;2024-01-11T00:08:41;33.50;;;16.38;;
43835;SDS011;39345;43.964;25.340;2024-01-11T00:11:09;31.52;;;15.40;;
43835;SDS011;39345;43.964;25.340;2024-01-11T00:13:36;36.75;;;17.08;;
43835;SDS011;39345;43.964;25.340;2024-01-11T00:16:04;30.92;;;14.95;;
43835;SDS011;39345;43.964;25.340;2024-01-11T00:18:31;32.08;;;15.35;;
43835;SDS011;39345;43.964;25.340;2024-01-11T00:20:59;29.10;;;14.70;;
43835;SDS011;39345;43.964;25.340;2024-01-11T00:23:27;31.17;;;15.20;;
43835;SDS011;39345;43.964;25.340;2024-01-11T00:25:54;36.03;;;15.88;;
43835;SDS011;39345;43.964;25.340;2024-01-11T00:28:22;34.90;;;16.10;;
43835;SDS011;39345;43.964;25.340;2024-01-11T00:30:50;30.35;;;15.05;;
43835;SDS011;39345;43.964;25.340;2024-01-11T00:33:17;29.63;;;14.43;;
43835;SDS011;39345;43.964;25.340;2024-01-11T00:35:45;29.00;;;14.70;;
43835;SDS011;39345;43.964;25.340;2024-01-11T00:38:13;32.38;;;15.88;;
43835;SDS011;39345;43.964;25.340;2024-01-11T00:40:40;29.35;;;15.25;;
43835;SDS011;39345;43.964;25.340;2024-01-11T00:43:08;28.92;;;15.75;;
43835;SDS011;39345;43.964;25.340;2024-01-11T00:45:35;34.33;;;16.38;;
43835;SDS011;39345;43.964;25.340;2024-01-11T00:48:03;33.05;;;16.65;;
43835;SDS011;39345;43.964;25.340;2024-01-11T00:50:30;35.40;;;16.13;;
43835;SDS011;39345;43.964;25.340;2024-01-11T00:52:58;33.40;;;16.92;;
43835;SDS011;39345;43.964;25.340;2024-01-11T00:55:27;36.25;;;17.00;;
43835;SDS011;39345;43.964;25.340;2024-01-11T00:57:55;35.03;;;16.00;;
43835;SDS011;39345;43.964;25.340;2024-01-11T01:00:22;31.42;;;16.27;;
43835;SDS011;39345;43.964;25.340;2024-01-11T01:02:50;31.65;;;15.57;;
43835;SDS011;39345;43.964;25.340;2024-01-11T01:05:17;29.80;;;15.20;;
43835;SDS011;39345;43.964;25.340;2024-01-11T01:07:45;33.60;;;15.95;;
43835;SDS011;39345;43.964;25.340;2024-01-11T01:10:12;35.08;;;15.52;;
43835;SDS011;39345;43.964;25.340;2024-01-11T01:12:40;30.75;;;14.63;;
43835;SDS011;39345;43.964;25.340;2024-01-11T01:15:07;31.00;;;14.27;;
43835;SDS011;39345;43.964;25.340;2024-01-11T01:17:35;30.95;;;14.82;;
43835;SDS011;39345;43.964;25.340;2024-01-11T01:20:03;31.65;;;13.93;;
43835;SDS011;39345;43.964;25.340;2024-01-11T01:22:31;33.33;;;15.40;;
43835;SDS011;39345;43.964;25.340;2024-01-11T01:24:58;29.95;;;14.63;;
43835;SDS011;39345;43.964;25.340;2024-01-11T01:27:26;28.08;;;14.38;;
43835;SDS011;39345;43.964;25.340;2024-01-11T01:29:53;28.55;;;14.75;;
43835;SDS011;39345;43.964;25.340;2024-01-11T01:32:21;29.35;;;14.88;;
43835;SDS011;39345;43.964;25.340;2024-01-11T01:34:49;33.55;;;14.63;;
43835;SDS011;39345;43.964;25.340;2024-01-11T01:37:16;29.10;;;13.65;;
43835;SDS011;39345;43.964;25.340;2024-01-11T01:39:44;36.30;;;15.98;;
43835;SDS011;39345;43.964;25.340;2024-01-11T01:42:11;29.00;;;13.45;;
43835;SDS011;39345;43.964;25.340;2024-01-11T01:44:39;31.80;;;14.63;;
43835;SDS011;39345;43.964;25.340;2024-01-11T01:47:07;29.25;;;13.20;;
43835;SDS011;39345;43.964;25.340;2024-01-11T01:49:36;36.60;;;14.60;;
43835;SDS011;39345;43.964;25.340;2024-01-11T01:52:05;26.88;;;13.38;;
43835;SDS011;39345;43.964;25.340;2024-01-11T01:54:33;27.08;;;13.20;;
43835;SDS011;39345;43.964;25.340;2024-01-11T01:57:01;30.70;;;14.18;;
43835;SDS011;39345;43.964;25.340;2024-01-11T01:59:29;32.55;;;14.35;;
43835;SDS011;39345;43.964;25.340;2024-01-11T02:01:57;29.40;;;14.38;;
43835;SDS011;39345;43.964;25.340;2024-01-11T02:04:24;28.42;;;14.18;;
43835;SDS011;39345;43.964;25.340;2024-01-11T02:06:52;33.35;;;14.43;;
43835;SDS011;39345;43.964;25.340;2024-01-11T02:09:22;29.35;;;13.60;;
43835;SDS011;39345;43.964;25.340;2024-01-11T02:11:51;29.30;;;13.80;;
43835;SDS011;39345;43.964;25.340;2024-01-11T02:14:19;31.98;;;13.73;;
43835;SDS011;39345;43.964;25.340;2024-01-11T02:16:47;28.58;;;14.00;;
43835;SDS011;39345;43.964;25.340;2024-01-11T02:19:16;31.35;;;13.52;;
43835;SDS011;39345;43.964;25.340;2024-01-11T02:21:44;33.60;;;15.13;;
43835;SDS011;39345;43.964;25.340;2024-01-11T02:24:13;32.30;;;15.43;;
43835;SDS011;39345;43.964;25.340;2024-01-11T02:27:00;30.10;;;13.57;;
43835;SDS011;39345;43.964;25.340;2024-01-11T02:29:28;31.08;;;14.40;;
43835;SDS011;39345;43.964;25.340;2024-01-11T02:31:56;31.80;;;14.40;;
43835;SDS011;39345;43.964;25.340;2024-01-11T02:34:24;31.58;;;14.32;;
43835;SDS011;39345;43.964;25.340;2024-01-11T02:36:51;28.90;;;13.95;;
43835;SDS011;39345;43.964;25.340;2024-01-11T02:39:19;31.25;;;14.57;;
43835;SDS011;39345;43.964;25.340;2024-01-11T02:41:48;31.40;;;14.65;;
43835;SDS011;39345;43.964;25.340;2024-01-11T02:44:17;31.20;;;13.93;;
43835;SDS011;39345;43.964;25.340;2024-01-11T02:46:44;29.55;;;13.73;;
43835;SDS011;39345;43.964;25.340;2024-01-11T02:49:12;30.75;;;14.38;;
43835;SDS011;39345;43.964;25.340;2024-01-11T02:51:39;29.42;;;13.35;;
43835;SDS011;39345;43.964;25.340;2024-01-11T02:54:07;31.10;;;14.68;;
43835;SDS011;39345;43.964;25.340;2024-01-11T02:56:34;33.15;;;14.48;;
43835;SDS011;39345;43.964;25.340;2024-01-11T02:59:02;31.35;;;13.73;;
43835;SDS011;39345;43.964;25.340;2024-01-11T03:01:30;29.52;;;13.52;;
43835;SDS011;39345;43.964;25.340;2024-01-11T03:03:57;31.75;;;13.90;;
43835;SDS011;39345;43.964;25.340;2024-01-11T03:06:25;31.75;;;14.35;;
43835;SDS011;39345;43.964;25.340;2024-01-11T03:08:53;28.58;;;12.70;;
43835;SDS011;39345;43.964;25.340;2024-01-11T03:11:20;27.35;;;13.32;;
43835;SDS011;39345;43.964;25.340;2024-01-11T03:13:48;24.25;;;13.07;;
43835;SDS011;39345;43.964;25.340;2024-01-11T03:16:15;27.98;;;13.38;;
43835;SDS011;39345;43.964;25.340;2024-01-11T03:18:43;27.25;;;13.38;;
43835;SDS011;39345;43.964;25.340;2024-01-11T03:21:10;33.05;;;13.50;;
43835;SDS011;39345;43.964;25.340;2024-01-11T03:23:38;27.27;;;13.32;;
43835;SDS011;39345;43.964;25.340;2024-01-11T03:26:40;26.73;;;12.95;;
43835;SDS011;39345;43.964;25.340;2024-01-11T03:28:59;29.73;;;14.13;;
43835;SDS011;39345;43.964;25.340;2024-01-11T03:31:27;27.92;;;13.27;;
43835;SDS011;39345;43.964;25.340;2024-01-11T03:33:55;25.95;;;12.43;;
43835;SDS011;39345;43.964;25.340;2024-01-11T03:36:23;26.80;;;13.32;;
43835;SDS011;39345;43.964;25.340;2024-01-11T03:38:51;31.30;;;13.55;;
43835;SDS011;39345;43.964;25.340;2024-01-11T03:41:18;27.05;;;12.55;;
43835;SDS011;39345;43.964;25.340;2024-01-11T03:43:46;28.50;;;13.65;;
43835;SDS011;39345;43.964;25.340;2024-01-11T03:46:13;23.48;;;12.75;;
43835;SDS011;39345;43.964;25.340;2024-01-11T03:48:41;22.80;;;12.60;;
43835;SDS011;39345;43.964;25.340;2024-01-11T03:51:09;28.48;;;12.93;;
43835;SDS011;39345;43.964;25.340;2024-01-11T03:53:36;25.73;;;12.90;;
43835;SDS011;39345;43.964;25.340;2024-01-11T03:56:04;25.58;;;12.95;;
43835;SDS011;39345;43.964;25.340;2024-01-11T03:58:32;26.65;;;12.98;;
43835;SDS011;39345;43.964;25.340;2024-01-11T04:01:01;25.63;;;12.77;;
43835;SDS011;39345;43.964;25.340;2024-01-11T04:03:29;27.25;;;12.15;;
43835;SDS011;39345;43.964;25.340;2024-01-11T04:05:56;22.38;;;11.52;;
43835;SDS011;39345;43.964;25.340;2024-01-11T04:08:24;26.27;;;12.43;;
43835;SDS011;39345;43.964;25.340;2024-01-11T04:10:52;24.60;;;11.88;;
43835;SDS011;39345;43.964;25.340;2024-01-11T04:13:19;25.30;;;12.10;;
43835;SDS011;39345;43.964;25.340;2024-01-11T04:15:50;24.77;;;11.95;;
43835;SDS011;39345;43.964;25.340;2024-01-11T04:18:17;27.30;;;13.15;;
43835;SDS011;39345;43.964;25.340;2024-01-11T04:20:45;24.23;;;11.98;;
43835;SDS011;39345;43.964;25.340;2024-01-11T04:23:13;29.92;;;12.60;;
43835;SDS011;39345;43.964;25.340;2024-01-11T04:25:40;27.08;;;13.05;;
43835;SDS011;39345;43.964;25.340;2024-01-11T04:28:08;30.38;;;13.85;;
43835;SDS011;39345;43.964;25.340;2024-01-11T04:30:36;25.23;;;12.80;;
43835;SDS011;39345;43.964;25.340;2024-01-11T04:33:04;24.55;;;12.23;;
43835;SDS011;39345;43.964;25.340;2024-01-11T04:35:32;21.42;;;12.35;;
43835;SDS011;39345;43.964;25.340;2024-01-11T04:37:59;25.08;;;12.73;;
43835;SDS011;39345;43.964;25.340;2024-01-11T04:40:27;27.13;;;13.75;;
43835;SDS011;39345;43.964;25.340;2024-01-11T04:42:55;24.08;;;12.48;;
43835;SDS011;39345;43.964;25.340;2024-01-11T04:45:22;27.90;;;12.38;;
43835;SDS011;39345;43.964;25.340;2024-01-11T04:47:50;28.08;;;13.45;;
43835;SDS011;39345;43.964;25.340;2024-01-11T04:50:18;24.38;;;12.13;;
43835;SDS011;39345;43.964;25.340;2024-01-11T04:52:48;38.20;;;19.70;;
43835;SDS011;39345;43.964;25.340;2024-01-11T04:55:15;26.90;;;12.68;;
43835;SDS011;39345;43.964;25.340;2024-01-11T04:57:43;23.95;;;12.55;;
43835;SDS011;39345;43.964;25.340;2024-01-11T05:00:11;24.02;;;12.60;;
43835;SDS011;39345;43.964;25.340;2024-01-11T05:02:38;28.98;;;13.30;;
43835;SDS011;39345;43.964;25.340;2024-01-11T05:05:06;25.52;;;11.80;;
43835;SDS011;39345;43.964;25.340;2024-01-11T05:07:34;26.65;;;12.65;;
43835;SDS011;39345;43.964;25.340;2024-01-11T05:10:01;23.08;;;11.90;;
43835;SDS011;39345;43.964;25.340;2024-01-11T05:12:29;24.25;;;11.68;;
43835;SDS011;39345;43.964;25.340;2024-01-11T05:14:56;24.60;;;12.25;;
43835;SDS011;39345;43.964;25.340;2024-01-11T05:17:24;29.13;;;11.57;;
43835;SDS011;39345;43.964;25.340;2024-01-11T05:19:52;26.60;;;12.27;;
43835;SDS011;39345;43.964;25.340;2024-01-11T05:22:20;27.42;;;12.43;;
43835;SDS011;39345;43.964;25.340;2024-01-11T05:24:48;26.10;;;13.20;;
43835;SDS011;39345;43.964;25.340;2024-01-11T05:27:16;26.33;;;12.48;;
43835;SDS011;39345;43.964;25.340;2024-01-11T05:29:43;27.30;;;12.80;;
43835;SDS011;39345;43.964;25.340;2024-01-11T05:32:11;27.48;;;13.52;;
43835;SDS011;39345;43.964;25.340;2024-01-11T05:34:38;25.42;;;13.50;;
43835;SDS011;39345;43.964;25.340;2024-01-11T05:37:06;26.88;;;13.95;;
43835;SDS011;39345;43.964;25.340;2024-01-11T05:39:34;30.77;;;14.35;;
43835;SDS011;39345;43.964;25.340;2024-01-11T05:42:01;25.50;;;14.10;;
43835;SDS011;39345;43.964;25.340;2024-01-11T05:44:29;31.70;;;14.30;;
43835;SDS011;39345;43.964;25.340;2024-01-11T05:46:57;33.58;;;17.45;;
43835;SDS011;39345;43.964;25.340;2024-01-11T05:49:24;26.73;;;14.20;;
43835;SDS011;39345;43.964;25.340;2024-01-11T05:51:52;34.67;;;16.08;;
43835;SDS011;39345;43.964;25.340;2024-01-11T05:54:19;32.53;;;16.13;;
43835;SDS011;39345;43.964;25.340;2024-01-11T05:56:47;30.63;;;15.45;;
43835;SDS011;39345;43.964;25.340;2024-01-11T05:59:15;35.92;;;16.38;;
43835;SDS011;39345;43.964;25.340;2024-01-11T06:01:42;37.85;;;17.05;;
43835;SDS011;39345;43.964;25.340;2024-01-11T06:04:10;46.13;;;19.55;;
43835;SDS011;39345;43.964;25.340;2024-01-11T06:06:37;36.75;;;16.58;;
43835;SDS011;39345;43.964;25.340;2024-01-11T06:09:05;32.97;;;15.88;;
43835;SDS011;39345;43.964;25.340;2024-01-11T06:11:33;32.55;;;15.13;;
43835;SDS011;39345;43.964;25.340;2024-01-11T06:14:00;29.92;;;14.35;;
43835;SDS011;39345;43.964;25.340;2024-01-11T06:16:29;28.27;;;13.70;;
43835;SDS011;39345;43.964;25.340;2024-01-11T06:18:57;28.13;;;13.50;;
43835;SDS011;39345;43.964;25.340;2024-01-11T06:21:25;26.55;;;12.93;;
43835;SDS011;39345;43.964;25.340;2024-01-11T06:23:52;26.83;;;13.35;;
43835;SDS011;39345;43.964;25.340;2024-01-11T06:26:20;30.60;;;14.15;;
43835;SDS011;39345;43.964;25.340;2024-01-11T06:28:49;28.05;;;14.10;;
43835;SDS011;39345;43.964;25.340;2024-01-11T06:31:16;32.35;;;15.98;;
43835;SDS011;39345;43.964;25.340;2024-01-11T06:33:44;40.53;;;19.55;;
43835;SDS011;39345;43.964;25.340;2024-01-11T06:36:16;49.25;;;21.98;;
43835;SDS011;39345;43.964;25.340;2024-01-11T06:38:44;40.28;;;19.50;;
43835;SDS011;39345;43.964;25.340;2024-01-11T06:41:11;34.85;;;17.13;;
43835;SDS011;39345;43.964;25.340;2024-01-11T06:43:39;31.40;;;16.70;;
43835;SDS011;39345;43.964;25.340;2024-01-11T06:46:06;32.85;;;16.08;;
43835;SDS011;39345;43.964;25.340;2024-01-11T06:48:35;32.65;;;15.75;;
43835;SDS011;39345;43.964;25.340;2024-01-11T06:51:03;31.38;;;15.77;;
43835;SDS011;39345;43.964;25.340;2024-01-11T06:53:31;33.72;;;16.00;;
43835;SDS011;39345;43.964;25.340;2024-01-11T06:55:58;31.20;;;15.48;;
43835;SDS011;39345;43.964;25.340;2024-01-11T06:58:26;35.70;;;15.90;;
43835;SDS011;39345;43.964;25.340;2024-01-11T07:00:54;33.63;;;17.50;;
43835;SDS011;39345;43.964;25.340;2024-01-11T07:03:21;29.13;;;14.05;;
43835;SDS011;39345;43.964;25.340;2024-01-11T07:05:49;28.80;;;14.15;;
43835;SDS011;39345;43.964;25.340;2024-01-11T07:08:17;29.48;;;14.50;;
43835;SDS011;39345;43.964;25.340;2024-01-11T07:10:44;30.27;;;14.27;;
43835;SDS011;39345;43.964;25.340;2024-01-11T07:13:14;25.60;;;12.95;;
43835;SDS011;39345;43.964;25.340;2024-01-11T07:15:43;24.15;;;12.20;;
43835;SDS011;39345;43.964;25.340;2024-01-11T07:18:11;24.60;;;12.77;;
43835;SDS011;39345;43.964;25.340;2024-01-11T07:20:38;26.08;;;13.07;;
43835;SDS011;39345;43.964;25.340;2024-01-11T07:23:06;23.95;;;12.40;;
43835;SDS011;39345;43.964;25.340;2024-01-11T07:25:34;26.77;;;13.65;;
43835;SDS011;39345;43.964;25.340;2024-01-11T07:28:01;25.60;;;13.27;;
43835;SDS011;39345;43.964;25.340;2024-01-11T07:30:29;24.80;;;13.18;;
43835;SDS011;39345;43.964;25.340;2024-01-11T07:32:56;29.98;;;14.93;;
43835;SDS011;39345;43.964;25.340;2024-01-11T07:35:24;28.80;;;14.88;;
43835;SDS011;39345;43.964;25.340;2024-01-11T07:37:52;24.83;;;13.52;;
43835;SDS011;39345;43.964;25.340;2024-01-11T07:40:19;24.73;;;12.75;;
43835;SDS011;39345;43.964;25.340;2024-01-11T07:42:47;25.83;;;13.43;;
43835;SDS011;39345;43.964;25.340;2024-01-11T07:45:15;28.88;;;14.05;;
43835;SDS011;39345;43.964;25.340;2024-01-11T07:47:42;27.45;;;13.25;;
43835;SDS011;39345;43.964;25.340;2024-01-11T07:50:10;32.83;;;14.35;;
43835;SDS011;39345;43.964;25.340;2024-01-11T07:52:39;28.52;;;14.60;;
43835;SDS011;39345;43.964;25.340;2024-01-11T07:55:10;36.90;;;17.80;;
43835;SDS011;39345;43.964;25.340;2024-01-11T07:57:39;37.55;;;17.55;;
43835;SDS011;39345;43.964;25.340;2024-01-11T08:00:08;37.10;;;15.00;;
43835;SDS011;39345;43.964;25.340;2024-01-11T08:02:38;26.67;;;13.82;;
43835;SDS011;39345;43.964;25.340;2024-01-11T08:05:06;24.00;;;13.27;;
43835;SDS011;39345;43.964;25.340;2024-01-11T08:07:35;29.00;;;15.30;;
43835;SDS011;39345;43.964;25.340;2024-01-11T08:10:02;26.55;;;13.00;;
43835;SDS011;39345;43.964;25.340;2024-01-11T08:12:30;26.02;;;14.15;;
43835;SDS011;39345;43.964;25.340;2024-01-11T08:14:58;25.15;;;13.30;;
43835;SDS011;39345;43.964;25.340;2024-01-11T08:17:26;28.55;;;15.68;;
43835;SDS011;39345;43.964;25.340;2024-01-11T08:19:53;27.80;;;14.98;;
43835;SDS011;39345;43.964;25.340;2024-01-11T08:22:23;29.98;;;15.43;;
43835;SDS011;39345;43.964;25.340;2024-01-11T08:24:53;28.55;;;15.73;;
43835;SDS011;39345;43.964;25.340;2024-01-11T08:27:22;27.05;;;14.98;;
43835;SDS011;39345;43.964;25.340;2024-01-11T08:29:50;28.52;;;14.75;;
43835;SDS011;39345;43.964;25.340;2024-01-11T08:32:17;28.92;;;14.70;;
43835;SDS011;39345;43.964;25.340;2024-01-11T08:34:57;29.13;;;15.02;;
43835;SDS011;39345;43.964;25.340;2024-01-11T08:37:25;35.85;;;16.13;;
43835;SDS011;39345;43.964;25.340;2024-01-11T08:39:52;25.42;;;14.63;;
43835;SDS011;39345;43.964;25.340;2024-01-11T08:42:20;27.88;;;15.18;;
43835;SDS011;39345;43.964;25.340;2024-01-11T08:44:47;28.05;;;15.15;;
43835;SDS011;39345;43.964;25.340;2024-01-11T08:47:15;30.42;;;15.65;;
43835;SDS011;39345;43.964;25.340;2024-01-11T08:49:42;26.90;;;14.15;;
43835;SDS011;39345;43.964;25.340;2024-01-11T08:52:10;30.17;;;15.00;;
43835;SDS011;39345;43.964;25.340;2024-01-11T08:54:37;28.92;;;14.20;;
43835;SDS011;39345;43.964;25.340;2024-01-11T08:57:05;29.20;;;15.48;;
43835;SDS011;39345;43.964;25.340;2024-01-11T08:59:33;27.35;;;14.52;;
43835;SDS011;39345;43.964;25.340;2024-01-11T09:02:01;26.85;;;14.02;;
43835;SDS011;39345;43.964;25.340;2024-01-11T09:04:40;29.90;;;14.70;;
43835;SDS011;39345;43.964;25.340;2024-01-11T09:07:08;28.63;;;14.30;;
43835;SDS011;39345;43.964;25.340;2024-01-11T09:09:36;27.73;;;14.55;;
43835;SDS011;39345;43.964;25.340;2024-01-11T09:12:16;26.23;;;14.63;;
43835;SDS011;39345;43.964;25.340;2024-01-11T09:14:43;27.17;;;13.57;;
43835;SDS011;39345;43.964;25.340;2024-01-11T09:17:11;27.58;;;13.10;;
43835;SDS011;39345;43.964;25.340;2024-01-11T09:19:39;25.73;;;13.90;;
43835;SDS011;39345;43.964;25.340;2024-01-11T09:22:07;23.50;;;12.70;;
43835;SDS011;39345;43.964;25.340;2024-01-11T09:24:37;23.55;;;12.35;;
43835;SDS011;39345;43.964;25.340;2024-01-11T09:27:06;25.52;;;13.05;;
43835;SDS011;39345;43.964;25.340;2024-01-11T09:29:33;28.25;;;13.82;;
43835;SDS011;39345;43.964;25.340;2024-01-11T09:32:01;22.42;;;11.88;;
43835;SDS011;39345;43.964;25.340;2024-01-11T09:34:29;22.67;;;11.57;;
43835;SDS011;39345;43.964;25.340;2024-01-11T09:36:58;22.60;;;12.02;;
43835;SDS011;39345;43.964;25.340;2024-01-11T09:39:26;22.77;;;11.88;;
43835;SDS011;39345;43.964;25.340;2024-01-11T09:42:06;22.13;;;11.18;;
43835;SDS011;39345;43.964;25.340;2024-01-11T09:44:33;19.17;;;10.00;;
43835;SDS011;39345;43.964;25.340;2024-01-11T09:47:01;21.80;;;10.77;;
43835;SDS011;39345;43.964;25.340;2024-01-11T09:49:30;22.35;;;10.80;;
43835;SDS011;39345;43.964;25.340;2024-01-11T09:51:58;22.88;;;11.10;;
43835;SDS011;39345;43.964;25.340;2024-01-11T09:54:27;20.13;;;10.40;;
43835;SDS011;39345;43.964;25.340;2024-01-11T09:56:56;19.40;;;11.02;;
43835;SDS011;39345;43.964;25.340;2024-01-11T09:59:27;21.75;;;11.35;;
43835;SDS011;39345;43.964;25.340;2024-01-11T10:01:55;21.90;;;10.63;;
43835;SDS011;39345;43.964;25.340;2024-01-11T10:04:25;16.35;;;9.50;;
43835;SDS011;39345;43.964;25.340;2024-01-11T10:06:53;18.67;;;9.75;;
43835;SDS011;39345;43.964;25.340;2024-01-11T10:09:21;19.30;;;9.90;;
43835;SDS011;39345;43.964;25.340;2024-01-11T10:11:49;18.05;;;9.90;;
43835;SDS011;39345;43.964;25.340;2024-01-11T10:14:17;19.40;;;10.02;;
43835;SDS011;39345;43.964;25.340;2024-01-11T10:16:45;19.38;;;10.07;;
43835;SDS011;39345;43.964;25.340;2024-01-11T10:19:12;19.05;;;10.32;;
43835;SDS011;39345;43.964;25.340;2024-01-11T10:21:43;20.65;;;9.88;;
43835;SDS011;39345;43.964;25.340;2024-01-11T10:24:16;18.48;;;9.95;;
43835;SDS011;39345;43.964;25.340;2024-01-11T10:26:44;23.23;;;9.88;;
43835;SDS011;39345;43.964;25.340;2024-01-11T10:29:12;19.15;;;10.55;;
43835;SDS011;39345;43.964;25.340;2024-01-11T10:31:40;19.30;;;10.18;;
43835;SDS011;39345;43.964;25.340;2024-01-11T10:34:07;22.02;;;10.82;;
43835;SDS011;39345;43.964;25.340;2024-01-11T10:36:35;21.13;;;10.65;;
43835;SDS011;39345;43.964;25.340;2024-01-11T10:39:03;23.02;;;11.93;;
43835;SDS011;39345;43.964;25.340;2024-01-11T10:41:38;22.73;;;11.75;;
43835;SDS011;39345;43.964;25.340;2024-01-11T10:44:11;19.63;;;10.55;;
43835;SDS011;39345;43.964;25.340;2024-01-11T10:46:42;18.67;;;9.95;;
43835;SDS011;39345;43.964;25.340;2024-01-11T10:49:11;20.45;;;11.20;;
43835;SDS011;39345;43.964;25.340;2024-01-11T10:52:00;17.63;;;9.88;;
43835;SDS011;39345;43.964;25.340;2024-01-11T10:54:29;20.08;;;10.63;;
43835;SDS011;39345;43.964;25.340;2024-01-11T10:57:00;20.35;;;10.50;;
43835;SDS011;39345;43.964;25.340;2024-01-11T10:59:31;19.92;;;10.05;;
43835;SDS011;39345;43.964;25.340;2024-01-11T11:02:00;21.92;;;10.95;;
43835;SDS011;39345;43.964;25.340;2024-01-11T11:04:33;18.98;;;10.95;;
43835;SDS011;39345;43.964;25.340;2024-01-11T11:07:02;22.15;;;11.90;;
43835;SDS011;39345;43.964;25.340;2024-01-11T11:09:34;22.02;;;11.57;;
43835;SDS011;39345;43.964;25.340;2024-01-11T11:12:02;22.05;;;12.48;;
43835;SDS011;39345;43.964;25.340;2024-01-11T11:14:30;22.50;;;11.85;;
43835;SDS011;39345;43.964;25.340;2024-01-11T11:16:59;25.27;;;12.02;;
43835;SDS011;39345;43.964;25.340;2024-01-11T11:19:26;26.98;;;13.45;;
43835;SDS011;39345;43.964;25.340;2024-01-11T11:21:54;24.95;;;12.35;;
43835;SDS011;39345;43.964;25.340;2024-01-11T11:24:22;23.17;;;12.27;;
43835;SDS011;39345;43.964;25.340;2024-01-11T11:26:49;25.75;;;13.50;;
43835;SDS011;39345;43.964;25.340;2024-01-11T11:29:17;25.25;;;13.50;;
43835;SDS011;39345;43.964;25.340;2024-01-11T11:31:45;23.75;;;12.65;;
43835;SDS011;39345;43.964;25.340;2024-01-11T11:34:57;21.00;;;12.02;;
43835;SDS011;39345;43.964;25.340;2024-01-11T11:37:24;23.42;;;13.13;;
43835;SDS011;39345;43.964;25.340;2024-01-11T11:39:52;23.52;;;13.15;;
43835;SDS011;39345;43.964;25.340;2024-01-11T11:42:21;22.42;;;11.77;;
43835;SDS011;39345;43.964;25.340;2024-01-11T11:44:50;25.27;;;12.73;;
43835;SDS011;39345;43.964;25.340;2024-01-11T11:47:22;25.60;;;13.43;;
43835;SDS011;39345;43.964;25.340;2024-01-11T11:50:09;22.50;;;12.75;;
43835;SDS011;39345;43.964;25.340;2024-01-11T11:52:38;22.30;;;12.45;;
43835;SDS011;39345;43.964;25.340;2024-01-11T11:55:06;22.55;;;11.70;;
43835;SDS011;39345;43.964;25.340;2024-01-11T11:57:34;23.42;;;13.02;;
43835;SDS011;39345;43.964;25.340;2024-01-11T12:00:03;26.40;;;11.20;;
43835;SDS011;39345;43.964;25.340;2024-01-11T12:02:38;17.45;;;10.93;;
43835;SDS011;39345;43.964;25.340;2024-01-11T12:05:07;24.25;;;13.07;;
43835;SDS011;39345;43.964;25.340;2024-01-11T12:07:35;26.48;;;12.52;;
43835;SDS011;39345;43.964;25.340;2024-01-11T12:10:02;22.92;;;12.35;;
43835;SDS011;39345;43.964;25.340;2024-01-11T12:12:31;23.55;;;12.35;;
43835;SDS011;39345;43.964;25.340;2024-01-11T12:14:59;20.08;;;11.88;;
43835;SDS011;39345;43.964;25.340;2024-01-11T12:17:26;23.20;;;13.02;;
43835;SDS011;39345;43.964;25.340;2024-01-11T12:19:54;23.10;;;12.13;;
43835;SDS011;39345;43.964;25.340;2024-01-11T12:22:23;21.52;;;13.45;;
43835;SDS011;39345;43.964;25.340;2024-01-11T12:24:51;27.88;;;12.85;;
43835;SDS011;39345;43.964;25.340;2024-01-11T12:27:18;25.00;;;13.27;;
43835;SDS011;39345;43.964;25.340;2024-01-11T12:29:47;24.73;;;13.90;;
43835;SDS011;39345;43.964;25.340;2024-01-11T12:32:24;22.08;;;12.23;;
43835;SDS011;39345;43.964;25.340;2024-01-11T12:34:52;24.40;;;12.50;;
43835;SDS011;39345;43.964;25.340;2024-01-11T12:37:20;24.77;;;13.10;;
43835;SDS011;39345;43.964;25.340;2024-01-11T12:39:48;22.25;;;11.82;;
43835;SDS011;39345;43.964;25.340;2024-01-11T12:42:15;25.65;;;13.23;;
43835;SDS011;39345;43.964;25.340;2024-01-11T12:44:43;22.08;;;12.98;;
43835;SDS011;39345;43.964;25.340;2024-01-11T12:47:13;22.33;;;13.15;;
43835;SDS011;39345;43.964;25.340;2024-01-11T12:49:43;26.58;;;13.27;;
43835;SDS011;39345;43.964;25.340;2024-01-11T12:52:18;25.00;;;12.50;;
43835;SDS011;39345;43.964;25.340;2024-01-11T12:54:46;24.70;;;13.32;;
43835;SDS011;39345;43.964;25.340;2024-01-11T12:57:20;22.00;;;13.07;;
43835;SDS011;39345;43.964;25.340;2024-01-11T12:59:48;25.10;;;12.65;;
43835;SDS011;39345;43.964;25.340;2024-01-11T13:02:16;25.58;;;14.13;;
43835;SDS011;39345;43.964;25.340;2024-01-11T13:04:46;23.77;;;12.60;;
43835;SDS011;39345;43.964;25.340;2024-01-11T13:07:13;21.92;;;13.18;;
43835;SDS011;39345;43.964;25.340;2024-01-11T13:09:42;24.83;;;14.52;;
43835;SDS011;39345;43.964;25.340;2024-01-11T13:12:10;23.77;;;14.15;;
43835;SDS011;39345;43.964;25.340;2024-01-11T13:14:38;24.85;;;14.30;;
43835;SDS011;39345;43.964;25.340;2024-01-11T13:17:07;23.35;;;13.65;;
43835;SDS011;39345;43.964;25.340;2024-01-11T13:19:34;25.80;;;14.88;;
43835;SDS011;39345;43.964;25.340;2024-01-11T13:22:02;27.65;;;14.85;;
43835;SDS011;39345;43.964;25.340;2024-01-11T13:24:30;27.45;;;14.95;;
43835;SDS011;39345;43.964;25.340;2024-01-11T13:26:57;25.38;;;14.52;;
43835;SDS011;39345;43.964;25.340;2024-01-11T13:29:25;25.13;;;13.43;;
43835;SDS011;39345;43.964;25.340;2024-01-11T13:31:52;30.55;;;15.15;;
43835;SDS011;39345;43.964;25.340;2024-01-11T13:34:20;26.52;;;13.32;;
43835;SDS011;39345;43.964;25.340;2024-01-11T13:36:48;22.38;;;13.80;;
43835;SDS011;39345;43.964;25.340;2024-01-11T13:39:15;22.40;;;12.43;;
43835;SDS011;39345;43.964;25.340;2024-01-11T13:41:44;24.83;;;12.55;;
43835;SDS011;39345;43.964;25.340;2024-01-11T13:44:12;22.33;;;12.20;;
43835;SDS011;39345;43.964;25.340;2024-01-11T13:46:40;22.75;;;12.40;;
43835;SDS011;39345;43.964;25.340;2024-01-11T13:49:07;24.02;;;12.15;;
43835;SDS011;39345;43.964;25.340;2024-01-11T13:51:36;23.05;;;12.68;;
43835;SDS011;39345;43.964;25.340;2024-01-11T13:54:19;24.70;;;12.93;;
43835;SDS011;39345;43.964;25.340;2024-01-11T13:56:49;21.92;;;11.60;;
43835;SDS011;39345;43.964;25.340;2024-01-11T13:59:19;23.05;;;12.52;;
43835;SDS011;39345;43.964;25.340;2024-01-11T14:01:46;21.10;;;12.38;;
43835;SDS011;39345;43.964;25.340;2024-01-11T14:04:14;24.60;;;13.25;;
43835;SDS011;39345;43.964;25.340;2024-01-11T14:06:42;24.63;;;12.52;;
43835;SDS011;39345;43.964;25.340;2024-01-11T14:09:09;25.05;;;14.05;;
43835;SDS011;39345;43.964;25.340;2024-01-11T14:11:38;26.48;;;12.63;;
43835;SDS011;39345;43.964;25.340;2024-01-11T14:14:05;23.73;;;12.95;;
43835;SDS011;39345;43.964;25.340;2024-01-11T14:16:33;21.15;;;12.40;;